Terminal Aerodrome Forecast
Issued by NWS

Home | Current Version | Previous Version | Text Only | Print | Product List | Glossary On
Versions: 1 2 3 4 5 6 7 8 9 10 11 12 13
000
FTUS46 KSEW 052354
TAFCLM
TAF
KCLM 052354Z 0600/0624 03007KT P6SM VCSH SCT010 BKN025 BKN050
      TEMPO 0600/0603 2SM -SHRASN BR BKN010 OVC025
     FM060300 04004KT P6SM BKN015 BKN050
     FM061500 VRB05KT P6SM BKN030 BKN050=

USA.gov is the U.S. government's official web portal to all federal, state and local government web resources and services.